sensor_id;sensor_type;location;lat;lon;timestamp;P1;durP1;ratioP1;P2;durP2;ratioP2
48945;SDS011;34999;50.940;3.998;2023-07-22T00:01:53;14.17;;;8.07;;
48945;SDS011;34999;50.940;3.998;2023-07-22T00:04:22;12.27;;;8.90;;
48945;SDS011;34999;50.940;3.998;2023-07-22T00:06:51;13.80;;;9.20;;
48945;SDS011;34999;50.940;3.998;2023-07-22T00:09:20;10.93;;;8.60;;
48945;SDS011;34999;50.940;3.998;2023-07-22T00:11:48;17.43;;;9.00;;
48945;SDS011;34999;50.940;3.998;2023-07-22T00:14:17;13.60;;;8.73;;
48945;SDS011;34999;50.940;3.998;2023-07-22T00:16:45;10.87;;;8.47;;
48945;SDS011;34999;50.940;3.998;2023-07-22T00:19:14;15.03;;;8.67;;
48945;SDS011;34999;50.940;3.998;2023-07-22T00:21:46;15.37;;;8.70;;
48945;SDS011;34999;50.940;3.998;2023-07-22T00:24:16;14.80;;;8.67;;
48945;SDS011;34999;50.940;3.998;2023-07-22T00:26:45;14.33;;;9.50;;
48945;SDS011;34999;50.940;3.998;2023-07-22T00:29:13;14.90;;;9.20;;
48945;SDS011;34999;50.940;3.998;2023-07-22T00:31:41;12.97;;;8.43;;
48945;SDS011;34999;50.940;3.998;2023-07-22T00:34:10;12.17;;;8.97;;
48945;SDS011;34999;50.940;3.998;2023-07-22T00:36:38;11.43;;;8.90;;
48945;SDS011;34999;50.940;3.998;2023-07-22T00:39:06;14.53;;;9.37;;
48945;SDS011;34999;50.940;3.998;2023-07-22T00:41:36;13.03;;;8.53;;
48945;SDS011;34999;50.940;3.998;2023-07-22T00:44:05;15.90;;;9.83;;
48945;SDS011;34999;50.940;3.998;2023-07-22T00:46:33;16.07;;;9.70;;
48945;SDS011;34999;50.940;3.998;2023-07-22T00:49:01;13.70;;;9.43;;
48945;SDS011;34999;50.940;3.998;2023-07-22T00:51:30;12.70;;;8.80;;
48945;SDS011;34999;50.940;3.998;2023-07-22T00:53:59;13.77;;;9.57;;
48945;SDS011;34999;50.940;3.998;2023-07-22T00:56:27;12.40;;;8.53;;
48945;SDS011;34999;50.940;3.998;2023-07-22T00:58:57;14.67;;;9.47;;
48945;SDS011;34999;50.940;3.998;2023-07-22T01:01:27;15.00;;;9.20;;
48945;SDS011;34999;50.940;3.998;2023-07-22T01:03:57;16.13;;;9.80;;
48945;SDS011;34999;50.940;3.998;2023-07-22T01:06:27;11.27;;;8.37;;
48945;SDS011;34999;50.940;3.998;2023-07-22T01:08:56;11.73;;;8.83;;
48945;SDS011;34999;50.940;3.998;2023-07-22T01:11:25;14.03;;;9.67;;
48945;SDS011;34999;50.940;3.998;2023-07-22T01:13:54;22.67;;;9.83;;
48945;SDS011;34999;50.940;3.998;2023-07-22T01:16:27;14.10;;;9.43;;
48945;SDS011;34999;50.940;3.998;2023-07-22T01:18:56;13.07;;;8.93;;
48945;SDS011;34999;50.940;3.998;2023-07-22T01:21:25;16.53;;;9.23;;
48945;SDS011;34999;50.940;3.998;2023-07-22T01:23:56;12.93;;;9.30;;
48945;SDS011;34999;50.940;3.998;2023-07-22T01:26:24;16.83;;;9.17;;
48945;SDS011;34999;50.940;3.998;2023-07-22T01:29:01;16.57;;;10.03;;
48945;SDS011;34999;50.940;3.998;2023-07-22T01:31:31;17.73;;;10.13;;
48945;SDS011;34999;50.940;3.998;2023-07-22T01:34:01;14.70;;;9.20;;
48945;SDS011;34999;50.940;3.998;2023-07-22T01:36:31;16.77;;;9.53;;
48945;SDS011;34999;50.940;3.998;2023-07-22T01:39:01;15.77;;;9.70;;
48945;SDS011;34999;50.940;3.998;2023-07-22T01:41:32;15.33;;;9.53;;
48945;SDS011;34999;50.940;3.998;2023-07-22T01:44:00;18.83;;;10.03;;
48945;SDS011;34999;50.940;3.998;2023-07-22T01:46:28;15.33;;;9.13;;
48945;SDS011;34999;50.940;3.998;2023-07-22T01:48:57;12.70;;;9.30;;
48945;SDS011;34999;50.940;3.998;2023-07-22T01:51:25;17.63;;;9.60;;
48945;SDS011;34999;50.940;3.998;2023-07-22T01:53:53;12.73;;;9.80;;
48945;SDS011;34999;50.940;3.998;2023-07-22T01:56:24;16.07;;;9.70;;
48945;SDS011;34999;50.940;3.998;2023-07-22T01:58:53;15.37;;;9.83;;
48945;SDS011;34999;50.940;3.998;2023-07-22T02:01:22;16.07;;;10.03;;
48945;SDS011;34999;50.940;3.998;2023-07-22T02:03:50;18.33;;;10.43;;
48945;SDS011;34999;50.940;3.998;2023-07-22T02:06:19;16.10;;;9.77;;
48945;SDS011;34999;50.940;3.998;2023-07-22T02:08:47;16.60;;;9.70;;
48945;SDS011;34999;50.940;3.998;2023-07-22T02:11:16;15.23;;;10.10;;
48945;SDS011;34999;50.940;3.998;2023-07-22T02:13:46;16.43;;;10.43;;
48945;SDS011;34999;50.940;3.998;2023-07-22T02:16:14;14.63;;;9.93;;
48945;SDS011;34999;50.940;3.998;2023-07-22T02:18:43;17.90;;;10.70;;
48945;SDS011;34999;50.940;3.998;2023-07-22T02:21:12;15.87;;;9.83;;
48945;SDS011;34999;50.940;3.998;2023-07-22T02:23:40;16.37;;;10.00;;
48945;SDS011;34999;50.940;3.998;2023-07-22T02:26:09;17.67;;;10.40;;
48945;SDS011;34999;50.940;3.998;2023-07-22T02:28:37;16.40;;;9.87;;
48945;SDS011;34999;50.940;3.998;2023-07-22T02:31:07;15.57;;;9.70;;
48945;SDS011;34999;50.940;3.998;2023-07-22T02:33:37;16.70;;;10.20;;
48945;SDS011;34999;50.940;3.998;2023-07-22T02:36:05;17.80;;;10.37;;
48945;SDS011;34999;50.940;3.998;2023-07-22T02:38:34;19.13;;;10.67;;
48945;SDS011;34999;50.940;3.998;2023-07-22T02:41:03;17.13;;;10.63;;
48945;SDS011;34999;50.940;3.998;2023-07-22T02:43:33;18.27;;;10.00;;
48945;SDS011;34999;50.940;3.998;2023-07-22T02:46:01;18.00;;;10.60;;
48945;SDS011;34999;50.940;3.998;2023-07-22T02:48:33;15.67;;;10.00;;
48945;SDS011;34999;50.940;3.998;2023-07-22T02:51:02;20.87;;;10.33;;
48945;SDS011;34999;50.940;3.998;2023-07-22T02:53:32;18.90;;;10.47;;
48945;SDS011;34999;50.940;3.998;2023-07-22T02:56:01;17.40;;;10.40;;
48945;SDS011;34999;50.940;3.998;2023-07-22T02:58:29;21.37;;;11.07;;
48945;SDS011;34999;50.940;3.998;2023-07-22T03:00:58;17.37;;;10.37;;
48945;SDS011;34999;50.940;3.998;2023-07-22T03:03:26;18.40;;;11.83;;
48945;SDS011;34999;50.940;3.998;2023-07-22T03:05:56;25.30;;;11.60;;
48945;SDS011;34999;50.940;3.998;2023-07-22T03:08:25;16.83;;;10.90;;
48945;SDS011;34999;50.940;3.998;2023-07-22T03:10:53;17.27;;;11.07;;
48945;SDS011;34999;50.940;3.998;2023-07-22T03:13:21;18.37;;;10.77;;
48945;SDS011;34999;50.940;3.998;2023-07-22T03:15:49;22.27;;;10.87;;
48945;SDS011;34999;50.940;3.998;2023-07-22T03:18:18;23.63;;;10.90;;
48945;SDS011;34999;50.940;3.998;2023-07-22T03:20:46;16.90;;;10.60;;
48945;SDS011;34999;50.940;3.998;2023-07-22T03:23:16;17.77;;;11.53;;
48945;SDS011;34999;50.940;3.998;2023-07-22T03:25:44;20.73;;;10.80;;
48945;SDS011;34999;50.940;3.998;2023-07-22T03:28:13;22.33;;;12.10;;
48945;SDS011;34999;50.940;3.998;2023-07-22T03:30:43;16.30;;;10.30;;
48945;SDS011;34999;50.940;3.998;2023-07-22T03:33:11;18.53;;;10.63;;
48945;SDS011;34999;50.940;3.998;2023-07-22T03:35:41;17.70;;;11.13;;
48945;SDS011;34999;50.940;3.998;2023-07-22T03:38:09;19.47;;;11.23;;
48945;SDS011;34999;50.940;3.998;2023-07-22T03:40:39;20.30;;;10.87;;
48945;SDS011;34999;50.940;3.998;2023-07-22T03:43:08;24.80;;;11.53;;
48945;SDS011;34999;50.940;3.998;2023-07-22T03:45:36;18.33;;;11.33;;
48945;SDS011;34999;50.940;3.998;2023-07-22T03:48:05;19.90;;;10.83;;
48945;SDS011;34999;50.940;3.998;2023-07-22T03:50:35;19.83;;;11.53;;
48945;SDS011;34999;50.940;3.998;2023-07-22T03:53:04;20.57;;;10.57;;
48945;SDS011;34999;50.940;3.998;2023-07-22T03:55:32;19.87;;;11.73;;
48945;SDS011;34999;50.940;3.998;2023-07-22T03:58:02;18.17;;;11.43;;
48945;SDS011;34999;50.940;3.998;2023-07-22T04:00:30;23.13;;;11.73;;
48945;SDS011;34999;50.940;3.998;2023-07-22T04:02:58;21.70;;;12.23;;
48945;SDS011;34999;50.940;3.998;2023-07-22T04:05:27;19.67;;;11.17;;
48945;SDS011;34999;50.940;3.998;2023-07-22T04:07:55;21.13;;;11.13;;
48945;SDS011;34999;50.940;3.998;2023-07-22T04:10:24;20.97;;;12.23;;
48945;SDS011;34999;50.940;3.998;2023-07-22T04:12:55;21.13;;;12.73;;
48945;SDS011;34999;50.940;3.998;2023-07-22T04:15:25;24.33;;;11.47;;
48945;SDS011;34999;50.940;3.998;2023-07-22T04:17:53;22.73;;;11.47;;
48945;SDS011;34999;50.940;3.998;2023-07-22T04:20:21;20.30;;;11.33;;
48945;SDS011;34999;50.940;3.998;2023-07-22T04:22:51;22.60;;;12.17;;
48945;SDS011;34999;50.940;3.998;2023-07-22T04:25:19;22.27;;;11.63;;
48945;SDS011;34999;50.940;3.998;2023-07-22T04:27:48;19.60;;;11.67;;
48945;SDS011;34999;50.940;3.998;2023-07-22T04:30:16;19.07;;;11.30;;
48945;SDS011;34999;50.940;3.998;2023-07-22T04:32:49;21.57;;;11.53;;
48945;SDS011;34999;50.940;3.998;2023-07-22T04:35:17;20.63;;;11.43;;
48945;SDS011;34999;50.940;3.998;2023-07-22T04:37:47;21.73;;;12.00;;
48945;SDS011;34999;50.940;3.998;2023-07-22T04:40:16;26.07;;;12.27;;
48945;SDS011;34999;50.940;3.998;2023-07-22T04:42:44;24.00;;;12.03;;
48945;SDS011;34999;50.940;3.998;2023-07-22T04:45:13;23.37;;;12.20;;
48945;SDS011;34999;50.940;3.998;2023-07-22T04:47:41;19.67;;;11.90;;
48945;SDS011;34999;50.940;3.998;2023-07-22T04:50:14;24.00;;;11.70;;
48945;SDS011;34999;50.940;3.998;2023-07-22T04:52:45;21.90;;;11.87;;
48945;SDS011;34999;50.940;3.998;2023-07-22T04:55:14;25.17;;;12.17;;
48945;SDS011;34999;50.940;3.998;2023-07-22T04:57:43;21.13;;;12.40;;
48945;SDS011;34999;50.940;3.998;2023-07-22T05:00:12;25.47;;;12.60;;
48945;SDS011;34999;50.940;3.998;2023-07-22T05:02:42;20.87;;;12.00;;
48945;SDS011;34999;50.940;3.998;2023-07-22T05:05:11;19.87;;;11.90;;
48945;SDS011;34999;50.940;3.998;2023-07-22T05:07:41;21.20;;;11.53;;
48945;SDS011;34999;50.940;3.998;2023-07-22T05:10:12;20.53;;;11.70;;
48945;SDS011;34999;50.940;3.998;2023-07-22T05:12:40;23.27;;;12.47;;
48945;SDS011;34999;50.940;3.998;2023-07-22T05:15:09;25.10;;;12.50;;
48945;SDS011;34999;50.940;3.998;2023-07-22T05:17:38;24.23;;;11.90;;
48945;SDS011;34999;50.940;3.998;2023-07-22T05:20:07;22.93;;;12.30;;
48945;SDS011;34999;50.940;3.998;2023-07-22T05:22:37;19.17;;;11.80;;
48945;SDS011;34999;50.940;3.998;2023-07-22T05:25:08;18.80;;;10.73;;
48945;SDS011;34999;50.940;3.998;2023-07-22T05:27:37;20.83;;;10.63;;
48945;SDS011;34999;50.940;3.998;2023-07-22T05:30:07;23.70;;;11.33;;
48945;SDS011;34999;50.940;3.998;2023-07-22T05:32:57;18.27;;;10.53;;
48945;SDS011;34999;50.940;3.998;2023-07-22T05:35:25;20.03;;;11.00;;
48945;SDS011;34999;50.940;3.998;2023-07-22T05:37:54;24.30;;;10.40;;
48945;SDS011;34999;50.940;3.998;2023-07-22T05:40:23;21.70;;;10.67;;
48945;SDS011;34999;50.940;3.998;2023-07-22T05:42:52;18.93;;;10.83;;
48945;SDS011;34999;50.940;3.998;2023-07-22T05:45:20;22.70;;;10.83;;
48945;SDS011;34999;50.940;3.998;2023-07-22T05:47:49;19.87;;;11.03;;
48945;SDS011;34999;50.940;3.998;2023-07-22T05:50:17;21.13;;;10.10;;
48945;SDS011;34999;50.940;3.998;2023-07-22T05:52:46;18.53;;;9.83;;
48945;SDS011;34999;50.940;3.998;2023-07-22T05:55:15;17.70;;;10.00;;
48945;SDS011;34999;50.940;3.998;2023-07-22T05:57:45;20.60;;;10.07;;
48945;SDS011;34999;50.940;3.998;2023-07-22T06:00:14;15.80;;;9.83;;
48945;SDS011;34999;50.940;3.998;2023-07-22T06:02:43;18.47;;;10.20;;
48945;SDS011;34999;50.940;3.998;2023-07-22T06:05:12;17.50;;;10.03;;
48945;SDS011;34999;50.940;3.998;2023-07-22T06:07:40;16.97;;;9.83;;
48945;SDS011;34999;50.940;3.998;2023-07-22T06:10:09;18.17;;;9.10;;
48945;SDS011;34999;50.940;3.998;2023-07-22T06:12:37;23.43;;;10.00;;
48945;SDS011;34999;50.940;3.998;2023-07-22T06:15:09;14.43;;;8.73;;
48945;SDS011;34999;50.940;3.998;2023-07-22T06:17:38;14.13;;;9.07;;
48945;SDS011;34999;50.940;3.998;2023-07-22T06:20:06;18.67;;;10.10;;
48945;SDS011;34999;50.940;3.998;2023-07-22T06:22:36;21.30;;;9.80;;
48945;SDS011;34999;50.940;3.998;2023-07-22T06:25:04;14.77;;;8.80;;
48945;SDS011;34999;50.940;3.998;2023-07-22T06:27:33;14.17;;;8.50;;
48945;SDS011;34999;50.940;3.998;2023-07-22T06:30:03;15.73;;;8.93;;
48945;SDS011;34999;50.940;3.998;2023-07-22T06:32:33;16.97;;;9.60;;
48945;SDS011;34999;50.940;3.998;2023-07-22T06:35:02;16.70;;;8.50;;
48945;SDS011;34999;50.940;3.998;2023-07-22T06:37:31;17.37;;;9.50;;
48945;SDS011;34999;50.940;3.998;2023-07-22T06:39:59;15.93;;;8.67;;
48945;SDS011;34999;50.940;3.998;2023-07-22T06:42:28;13.30;;;8.33;;
48945;SDS011;34999;50.940;3.998;2023-07-22T06:44:56;18.40;;;8.87;;
48945;SDS011;34999;50.940;3.998;2023-07-22T06:47:25;14.90;;;8.33;;
48945;SDS011;34999;50.940;3.998;2023-07-22T06:49:54;15.53;;;8.60;;
48945;SDS011;34999;50.940;3.998;2023-07-22T06:52:23;13.93;;;8.57;;
48945;SDS011;34999;50.940;3.998;2023-07-22T06:54:51;13.60;;;7.87;;
48945;SDS011;34999;50.940;3.998;2023-07-22T06:57:19;13.50;;;7.83;;
48945;SDS011;34999;50.940;3.998;2023-07-22T06:59:48;15.93;;;8.40;;
48945;SDS011;34999;50.940;3.998;2023-07-22T07:02:17;12.60;;;8.23;;
48945;SDS011;34999;50.940;3.998;2023-07-22T07:04:45;15.43;;;8.23;;
48945;SDS011;34999;50.940;3.998;2023-07-22T07:07:15;12.50;;;8.53;;
48945;SDS011;34999;50.940;3.998;2023-07-22T07:09:44;13.03;;;8.40;;
48945;SDS011;34999;50.940;3.998;2023-07-22T07:12:12;19.33;;;8.20;;
48945;SDS011;34999;50.940;3.998;2023-07-22T07:14:41;20.53;;;7.77;;
48945;SDS011;34999;50.940;3.998;2023-07-22T07:17:09;15.00;;;9.27;;
48945;SDS011;34999;50.940;3.998;2023-07-22T07:19:38;13.20;;;8.47;;
48945;SDS011;34999;50.940;3.998;2023-07-22T07:22:06;13.90;;;8.37;;
48945;SDS011;34999;50.940;3.998;2023-07-22T07:24:36;18.40;;;8.93;;
48945;SDS011;34999;50.940;3.998;2023-07-22T07:27:05;16.57;;;8.30;;
48945;SDS011;34999;50.940;3.998;2023-07-22T07:29:34;23.03;;;10.03;;
48945;SDS011;34999;50.940;3.998;2023-07-22T07:32:06;18.53;;;9.47;;
48945;SDS011;34999;50.940;3.998;2023-07-22T07:34:34;16.10;;;8.93;;
48945;SDS011;34999;50.940;3.998;2023-07-22T07:37:03;16.50;;;9.37;;
48945;SDS011;34999;50.940;3.998;2023-07-22T07:39:32;19.87;;;9.90;;
48945;SDS011;34999;50.940;3.998;2023-07-22T07:42:02;17.53;;;8.73;;
48945;SDS011;34999;50.940;3.998;2023-07-22T07:44:31;15.77;;;8.90;;
48945;SDS011;34999;50.940;3.998;2023-07-22T07:46:59;14.37;;;8.93;;
48945;SDS011;34999;50.940;3.998;2023-07-22T07:49:27;13.30;;;8.60;;
48945;SDS011;34999;50.940;3.998;2023-07-22T07:51:56;14.87;;;8.00;;
48945;SDS011;34999;50.940;3.998;2023-07-22T07:54:24;14.60;;;7.47;;
48945;SDS011;34999;50.940;3.998;2023-07-22T07:56:52;15.63;;;8.07;;
48945;SDS011;34999;50.940;3.998;2023-07-22T07:59:22;16.63;;;7.70;;
48945;SDS011;34999;50.940;3.998;2023-07-22T08:01:50;14.30;;;7.43;;
48945;SDS011;34999;50.940;3.998;2023-07-22T08:04:19;14.23;;;7.67;;
48945;SDS011;34999;50.940;3.998;2023-07-22T08:06:47;14.67;;;7.13;;
48945;SDS011;34999;50.940;3.998;2023-07-22T08:09:16;17.00;;;7.20;;
48945;SDS011;34999;50.940;3.998;2023-07-22T08:11:46;12.27;;;5.93;;
48945;SDS011;34999;50.940;3.998;2023-07-22T08:14:15;7.97;;;6.03;;
48945;SDS011;34999;50.940;3.998;2023-07-22T08:16:45;10.73;;;5.80;;
48945;SDS011;34999;50.940;3.998;2023-07-22T08:19:14;8.50;;;5.43;;
48945;SDS011;34999;50.940;3.998;2023-07-22T08:21:42;9.43;;;5.40;;
48945;SDS011;34999;50.940;3.998;2023-07-22T08:24:11;8.33;;;5.63;;
48945;SDS011;34999;50.940;3.998;2023-07-22T08:26:39;14.73;;;5.93;;
48945;SDS011;34999;50.940;3.998;2023-07-22T08:29:07;9.70;;;5.03;;
48945;SDS011;34999;50.940;3.998;2023-07-22T08:31:37;10.33;;;4.93;;
48945;SDS011;34999;50.940;3.998;2023-07-22T08:34:07;7.07;;;5.23;;
48945;SDS011;34999;50.940;3.998;2023-07-22T08:36:35;5.40;;;4.60;;
48945;SDS011;34999;50.940;3.998;2023-07-22T08:39:04;8.13;;;4.50;;
48945;SDS011;34999;50.940;3.998;2023-07-22T08:41:34;8.30;;;4.90;;
48945;SDS011;34999;50.940;3.998;2023-07-22T08:44:04;7.80;;;4.43;;
48945;SDS011;34999;50.940;3.998;2023-07-22T08:46:34;8.10;;;4.77;;
48945;SDS011;34999;50.940;3.998;2023-07-22T08:49:04;6.07;;;4.00;;
48945;SDS011;34999;50.940;3.998;2023-07-22T08:51:36;7.47;;;4.17;;
48945;SDS011;34999;50.940;3.998;2023-07-22T08:54:06;5.90;;;3.80;;
48945;SDS011;34999;50.940;3.998;2023-07-22T08:56:38;5.07;;;3.88;;
48945;SDS011;34999;50.940;3.998;2023-07-22T08:59:07;5.55;;;3.72;;
48945;SDS011;34999;50.940;3.998;2023-07-22T09:01:36;6.82;;;3.70;;
48945;SDS011;34999;50.940;3.998;2023-07-22T09:04:06;4.88;;;3.67;;
48945;SDS011;34999;50.940;3.998;2023-07-22T09:06:36;9.43;;;3.53;;
48945;SDS011;34999;50.940;3.998;2023-07-22T09:09:05;6.22;;;3.60;;
48945;SDS011;34999;50.940;3.998;2023-07-22T09:11:38;4.45;;;3.40;;
48945;SDS011;34999;50.940;3.998;2023-07-22T09:14:06;4.50;;;3.08;;
48945;SDS011;34999;50.940;3.998;2023-07-22T09:16:42;4.30;;;3.15;;
48945;SDS011;34999;50.940;3.998;2023-07-22T09:19:11;4.55;;;3.65;;
48945;SDS011;34999;50.940;3.998;2023-07-22T09:21:41;5.80;;;2.80;;
48945;SDS011;34999;50.940;3.998;2023-07-22T09:24:19;3.22;;;2.90;;
48945;SDS011;34999;50.940;3.998;2023-07-22T09:26:49;6.18;;;3.10;;
48945;SDS011;34999;50.940;3.998;2023-07-22T09:29:18;4.53;;;2.70;;
48945;SDS011;34999;50.940;3.998;2023-07-22T09:31:59;3.35;;;2.05;;
48945;SDS011;34999;50.940;3.998;2023-07-22T09:34:29;5.22;;;2.20;;
48945;SDS011;34999;50.940;3.998;2023-07-22T09:37:00;5.65;;;1.92;;
48945;SDS011;34999;50.940;3.998;2023-07-22T09:39:30;2.08;;;1.88;;
48945;SDS011;34999;50.940;3.998;2023-07-22T09:41:59;2.38;;;2.00;;
48945;SDS011;34999;50.940;3.998;2023-07-22T09:44:29;2.40;;;2.03;;
48945;SDS011;34999;50.940;3.998;2023-07-22T09:46:59;4.10;;;2.10;;
48945;SDS011;34999;50.940;3.998;2023-07-22T09:49:39;3.50;;;2.08;;
48945;SDS011;34999;50.940;3.998;2023-07-22T09:52:10;2.80;;;1.90;;
48945;SDS011;34999;50.940;3.998;2023-07-22T09:54:46;3.45;;;2.15;;
48945;SDS011;34999;50.940;3.998;2023-07-22T09:57:15;2.00;;;1.90;;
48945;SDS011;34999;50.940;3.998;2023-07-22T09:59:44;2.00;;;1.87;;
48945;SDS011;34999;50.940;3.998;2023-07-22T10:02:15;2.50;;;2.30;;
48945;SDS011;34999;50.940;3.998;2023-07-22T10:04:46;2.72;;;2.00;;
48945;SDS011;34999;50.940;3.998;2023-07-22T10:07:18;3.20;;;2.00;;
48945;SDS011;34999;50.940;3.998;2023-07-22T10:09:49;4.33;;;2.33;;
48945;SDS011;34999;50.940;3.998;2023-07-22T10:12:19;5.53;;;1.80;;
48945;SDS011;34999;50.940;3.998;2023-07-22T10:14:47;2.07;;;1.97;;
48945;SDS011;34999;50.940;3.998;2023-07-22T10:17:18;2.07;;;1.87;;
48945;SDS011;34999;50.940;3.998;2023-07-22T10:19:47;1.80;;;1.70;;
48945;SDS011;34999;50.940;3.998;2023-07-22T10:22:16;2.60;;;1.70;;
48945;SDS011;34999;50.940;3.998;2023-07-22T10:24:46;3.60;;;1.77;;
48945;SDS011;34999;50.940;3.998;2023-07-22T10:27:15;1.90;;;1.80;;
48945;SDS011;34999;50.940;3.998;2023-07-22T10:29:45;4.20;;;1.83;;
48945;SDS011;34999;50.940;3.998;2023-07-22T10:32:14;3.13;;;1.90;;
48945;SDS011;34999;50.940;3.998;2023-07-22T10:34:43;1.90;;;1.80;;
48945;SDS011;34999;50.940;3.998;2023-07-22T10:37:12;2.60;;;1.63;;
48945;SDS011;34999;50.940;3.998;2023-07-22T10:39:42;1.80;;;1.70;;
48945;SDS011;34999;50.940;3.998;2023-07-22T10:42:16;1.70;;;1.70;;
48945;SDS011;34999;50.940;3.998;2023-07-22T10:44:52;2.00;;;1.90;;
48945;SDS011;34999;50.940;3.998;2023-07-22T10:47:31;3.27;;;1.90;;
48945;SDS011;34999;50.940;3.998;2023-07-22T10:50:07;1.80;;;1.73;;
48945;SDS011;34999;50.940;3.998;2023-07-22T10:52:40;1.90;;;1.80;;
48945;SDS011;34999;50.940;3.998;2023-07-22T10:55:17;3.00;;;2.20;;
48945;SDS011;34999;50.940;3.998;2023-07-22T10:57:50;2.10;;;1.90;;
48945;SDS011;34999;50.940;3.998;2023-07-22T11:00:22;2.30;;;2.00;;
48945;SDS011;34999;50.940;3.998;2023-07-22T11:03:08;2.87;;;1.83;;
48945;SDS011;34999;50.940;3.998;2023-07-22T11:05:49;2.08;;;1.80;;
48945;SDS011;34999;50.940;3.998;2023-07-22T11:11:05;1.70;;;1.70;;
48945;SDS011;34999;50.940;3.998;2023-07-22T11:13:40;2.27;;;1.97;;
48945;SDS011;34999;50.940;3.998;2023-07-22T11:16:10;4.83;;;1.90;;
48945;SDS011;34999;50.940;3.998;2023-07-22T11:18:39;1.80;;;1.80;;
48945;SDS011;34999;50.940;3.998;2023-07-22T11:21:09;3.50;;;1.80;;
48945;SDS011;34999;50.940;3.998;2023-07-22T11:23:38;1.77;;;1.70;;
48945;SDS011;34999;50.940;3.998;2023-07-22T11:26:07;1.87;;;1.80;;
48945;SDS011;34999;50.940;3.998;2023-07-22T11:28:36;1.48;;;1.48;;
48945;SDS011;34999;50.940;3.998;2023-07-22T11:31:05;2.37;;;1.80;;
48945;SDS011;34999;50.940;3.998;2023-07-22T11:33:39;3.50;;;1.83;;
48945;SDS011;34999;50.940;3.998;2023-07-22T11:36:13;1.90;;;1.80;;
48945;SDS011;34999;50.940;3.998;2023-07-22T11:38:41;1.90;;;1.80;;
48945;SDS011;34999;50.940;3.998;2023-07-22T11:41:12;2.03;;;1.88;;
48945;SDS011;34999;50.940;3.998;2023-07-22T11:43:42;2.20;;;2.00;;
48945;SDS011;34999;50.940;3.998;2023-07-22T11:46:10;3.33;;;1.80;;
48945;SDS011;34999;50.940;3.998;2023-07-22T11:48:38;3.20;;;1.90;;
48945;SDS011;34999;50.940;3.998;2023-07-22T11:51:07;1.90;;;1.80;;
48945;SDS011;34999;50.940;3.998;2023-07-22T11:53:36;1.80;;;1.70;;
48945;SDS011;34999;50.940;3.998;2023-07-22T11:56:06;1.90;;;1.80;;
48945;SDS011;34999;50.940;3.998;2023-07-22T11:58:40;2.20;;;1.77;;
48945;SDS011;34999;50.940;3.998;2023-07-22T12:01:10;2.03;;;1.93;;
48945;SDS011;34999;50.940;3.998;2023-07-22T12:03:39;2.07;;;1.83;;
48945;SDS011;34999;50.940;3.998;2023-07-22T12:06:07;8.20;;;2.27;;
48945;SDS011;34999;50.940;3.998;2023-07-22T12:08:36;4.50;;;2.03;;
48945;SDS011;34999;50.940;3.998;2023-07-22T12:11:15;5.90;;;1.80;;
48945;SDS011;34999;50.940;3.998;2023-07-22T12:13:46;1.97;;;1.90;;
48945;SDS011;34999;50.940;3.998;2023-07-22T12:16:21;1.97;;;1.87;;
48945;SDS011;34999;50.940;3.998;2023-07-22T12:18:54;4.13;;;1.80;;
48945;SDS011;34999;50.940;3.998;2023-07-22T12:21:22;2.00;;;1.90;;
48945;SDS011;34999;50.940;3.998;2023-07-22T12:23:52;2.20;;;2.00;;
48945;SDS011;34999;50.940;3.998;2023-07-22T12:26:21;3.03;;;1.97;;
48945;SDS011;34999;50.940;3.998;2023-07-22T12:28:51;2.00;;;1.90;;
48945;SDS011;34999;50.940;3.998;2023-07-22T12:31:19;2.00;;;1.80;;
48945;SDS011;34999;50.940;3.998;2023-07-22T12:33:48;1.97;;;1.57;;
48945;SDS011;34999;50.940;3.998;2023-07-22T12:36:16;1.67;;;1.57;;
48945;SDS011;34999;50.940;3.998;2023-07-22T12:38:45;2.57;;;1.90;;
48945;SDS011;34999;50.940;3.998;2023-07-22T12:41:13;2.97;;;1.60;;
48945;SDS011;34999;50.940;3.998;2023-07-22T12:43:41;1.83;;;1.70;;
48945;SDS011;34999;50.940;3.998;2023-07-22T12:46:11;1.83;;;1.60;;
48945;SDS011;34999;50.940;3.998;2023-07-22T12:48:40;3.77;;;1.83;;
48945;SDS011;34999;50.940;3.998;2023-07-22T12:51:08;5.13;;;2.10;;
48945;SDS011;34999;50.940;3.998;2023-07-22T12:53:36;4.70;;;1.90;;
48945;SDS011;34999;50.940;3.998;2023-07-22T12:56:05;3.17;;;1.73;;
48945;SDS011;34999;50.940;3.998;2023-07-22T12:58:33;1.87;;;1.77;;
48945;SDS011;34999;50.940;3.998;2023-07-22T13:01:01;3.13;;;1.83;;
48945;SDS011;34999;50.940;3.998;2023-07-22T13:03:31;2.50;;;1.87;;
48945;SDS011;34999;50.940;3.998;2023-07-22T13:05:59;1.87;;;1.77;;
48945;SDS011;34999;50.940;3.998;2023-07-22T13:08:28;3.23;;;1.70;;
48945;SDS011;34999;50.940;3.998;2023-07-22T13:10:56;3.90;;;1.80;;
48945;SDS011;34999;50.940;3.998;2023-07-22T13:13:25;2.10;;;1.83;;
48945;SDS011;34999;50.940;3.998;2023-07-22T13:15:54;3.20;;;1.50;;
48945;SDS011;34999;50.940;3.998;2023-07-22T13:18:22;1.80;;;1.70;;
48945;SDS011;34999;50.940;3.998;2023-07-22T13:20:52;2.00;;;1.90;;
48945;SDS011;34999;50.940;3.998;2023-07-22T13:23:20;3.57;;;1.80;;
48945;SDS011;34999;50.940;3.998;2023-07-22T13:25:50;4.37;;;2.00;;
48945;SDS011;34999;50.940;3.998;2023-07-22T13:28:18;2.23;;;1.70;;
48945;SDS011;34999;50.940;3.998;2023-07-22T13:30:47;1.73;;;1.63;;
48945;SDS011;34999;50.940;3.998;2023-07-22T13:33:16;4.63;;;1.90;;
48945;SDS011;34999;50.940;3.998;2023-07-22T13:35:45;2.10;;;1.80;;
48945;SDS011;34999;50.940;3.998;2023-07-22T13:38:15;2.17;;;2.07;;
48945;SDS011;34999;50.940;3.998;2023-07-22T13:40:44;2.87;;;2.30;;
48945;SDS011;34999;50.940;3.998;2023-07-22T13:43:12;5.13;;;2.20;;
48945;SDS011;34999;50.940;3.998;2023-07-22T13:45:41;3.27;;;2.07;;
48945;SDS011;34999;50.940;3.998;2023-07-22T13:48:09;2.50;;;1.93;;
48945;SDS011;34999;50.940;3.998;2023-07-22T13:50:38;2.40;;;1.90;;
48945;SDS011;34999;50.940;3.998;2023-07-22T13:53:08;2.00;;;1.90;;
48945;SDS011;34999;50.940;3.998;2023-07-22T13:55:37;3.13;;;1.90;;
48945;SDS011;34999;50.940;3.998;2023-07-22T13:58:06;2.30;;;1.80;;
48945;SDS011;34999;50.940;3.998;2023-07-22T14:00:34;1.67;;;1.67;;
48945;SDS011;34999;50.940;3.998;2023-07-22T14:03:03;2.50;;;2.07;;
48945;SDS011;34999;50.940;3.998;2023-07-22T14:05:32;2.00;;;1.90;;
48945;SDS011;34999;50.940;3.998;2023-07-22T14:08:00;7.90;;;1.90;;
48945;SDS011;34999;50.940;3.998;2023-07-22T14:10:28;4.80;;;2.20;;
48945;SDS011;34999;50.940;3.998;2023-07-22T14:12:59;3.53;;;2.07;;
48945;SDS011;34999;50.940;3.998;2023-07-22T14:15:27;4.23;;;1.73;;
48945;SDS011;34999;50.940;3.998;2023-07-22T14:17:55;1.83;;;1.70;;
48945;SDS011;34999;50.940;3.998;2023-07-22T14:20:24;2.10;;;1.83;;
48945;SDS011;34999;50.940;3.998;2023-07-22T14:22:52;2.67;;;1.93;;
48945;SDS011;34999;50.940;3.998;2023-07-22T14:25:21;3.20;;;1.97;;
48945;SDS011;34999;50.940;3.998;2023-07-22T14:27:50;3.20;;;2.17;;
48945;SDS011;34999;50.940;3.998;2023-07-22T14:30:19;1.70;;;1.60;;
48945;SDS011;34999;50.940;3.998;2023-07-22T14:32:47;3.03;;;2.00;;
48945;SDS011;34999;50.940;3.998;2023-07-22T14:35:16;3.40;;;1.63;;
48945;SDS011;34999;50.940;3.998;2023-07-22T14:37:44;3.10;;;1.70;;
48945;SDS011;34999;50.940;3.998;2023-07-22T14:40:13;2.57;;;1.90;;
48945;SDS011;34999;50.940;3.998;2023-07-22T14:42:42;9.00;;;2.17;;
48945;SDS011;34999;50.940;3.998;2023-07-22T14:45:10;2.57;;;1.90;;
48945;SDS011;34999;50.940;3.998;2023-07-22T14:47:40;2.93;;;1.93;;
48945;SDS011;34999;50.940;3.998;2023-07-22T14:50:08;3.03;;;1.80;;
48945;SDS011;34999;50.940;3.998;2023-07-22T14:52:37;3.57;;;1.87;;